createdAt,value
2023-03-19T00:02:18.902Z,41.44
2023-03-19T00:05:22.922Z,41.11
2023-03-19T00:08:27.247Z,41.14
2023-03-19T00:11:31.330Z,41.14
2023-03-19T00:14:35.424Z,40.62
2023-03-19T00:17:40.142Z,41.31
2023-03-19T00:20:44.874Z,41.85
2023-03-19T00:23:49.053Z,40.42
2023-03-19T00:26:53.265Z,39.76
2023-03-19T00:29:57.777Z,39.69
2023-03-19T00:33:02.516Z,39.37
2023-03-19T00:36:07.684Z,39.13
2023-03-19T00:39:11.707Z,38.84
2023-03-19T00:42:15.700Z,38.64
2023-03-19T00:45:19.606Z,39.12
2023-03-19T00:48:23.295Z,38.07
2023-03-19T00:51:27.428Z,38.55
2023-03-19T00:54:33.159Z,38.69
2023-03-19T00:57:37.098Z,37.47
2023-03-19T01:00:41.150Z,35.81
2023-03-19T01:03:47.118Z,35.43
2023-03-19T01:06:52.510Z,36.06
2023-03-19T01:09:57.048Z,34.51
2023-03-19T01:13:01.505Z,35.88
2023-03-19T01:16:05.514Z,35.61
2023-03-19T01:19:10.989Z,34.83
2023-03-19T01:22:17.530Z,34.13
2023-03-19T01:25:27.260Z,33.64
2023-03-19T01:28:42.277Z,33.62
2023-03-19T01:31:47.523Z,33.67
2023-03-19T01:35:17.850Z,35.39
2023-03-19T01:38:22.871Z,33.26
2023-03-19T01:41:28.659Z,34.16
2023-03-19T01:44:40.699Z,32.54
2023-03-19T01:48:08.220Z,32.09
2023-03-19T01:51:27.210Z,32.63
2023-03-19T01:54:42.894Z,33.39
2023-03-19T01:58:07.582Z,32.49
2023-03-19T02:01:34.186Z,35.63
2023-03-19T02:04:40.090Z,34.30
2023-03-19T02:07:45.757Z,35.18
2023-03-19T02:10:50.548Z,35.27
2023-03-19T02:13:54.595Z,35.55
2023-03-19T02:16:58.865Z,34.14
2023-03-19T02:20:23.510Z,34.43
2023-03-19T02:23:46.317Z,35.62
2023-03-19T02:26:57.304Z,34.66
2023-03-19T02:30:03.088Z,34.70
2023-03-19T02:33:07.757Z,35.26
2023-03-19T02:36:14.311Z,35.78
2023-03-19T02:39:24.720Z,35.46
2023-03-19T02:42:29.547Z,35.07
2023-03-19T02:45:35.263Z,34.32
2023-03-19T02:48:39.697Z,34.66
2023-03-19T02:51:43.720Z,35.06
2023-03-19T02:54:47.741Z,35.61
2023-03-19T02:57:51.758Z,35.06
2023-03-19T03:00:55.863Z,35.37
2023-03-19T03:04:00.194Z,34.57
2023-03-19T03:07:05.152Z,35.35
2023-03-19T03:10:09.369Z,34.58
2023-03-19T03:13:13.390Z,35.95
2023-03-19T03:16:18.294Z,36.80
2023-03-19T03:19:22.540Z,35.30
2023-03-19T03:22:26.474Z,35.98
2023-03-19T03:25:31.481Z,35.91
2023-03-19T03:28:36.764Z,35.94
2023-03-19T03:31:40.761Z,35.83
2023-03-19T03:34:47.031Z,35.28
2023-03-19T03:37:53.161Z,36.83
2023-03-19T03:40:57.317Z,35.65
2023-03-19T03:44:03.056Z,36.34
2023-03-19T03:47:10.605Z,36.91
2023-03-19T03:50:14.852Z,36.36
2023-03-19T03:53:18.902Z,36.89
2023-03-19T03:56:22.975Z,36.46
2023-03-19T03:59:28.521Z,36.36
2023-03-19T04:02:32.607Z,36.56
2023-03-19T04:05:37.983Z,37.01
2023-03-19T04:08:45.679Z,36.13
2023-03-19T04:11:52.607Z,36.90
2023-03-19T04:14:56.731Z,34.72
2023-03-19T04:18:00.748Z,37.09
2023-03-19T04:21:06.052Z,37.08
2023-03-19T04:24:11.424Z,33.33
2023-03-19T04:27:15.823Z,33.16
2023-03-19T04:30:20.038Z,33.96
2023-03-19T04:33:24.251Z,33.41
2023-03-19T04:36:28.364Z,33.26
2023-03-19T04:39:32.745Z,33.40
2023-03-19T04:42:36.694Z,34.57
2023-03-19T04:45:45.468Z,34.07
2023-03-19T04:48:50.097Z,34.48
2023-03-19T04:51:54.340Z,35.09
2023-03-19T04:54:59.326Z,35.29
2023-03-19T04:58:03.528Z,35.31
2023-03-19T05:01:10.758Z,34.44
2023-03-19T05:04:34.993Z,34.61
2023-03-19T05:07:43.612Z,35.35
2023-03-19T05:10:48.245Z,35.25
2023-03-19T05:13:52.276Z,36.39
2023-03-19T05:16:56.186Z,35.99
2023-03-19T05:20:01.548Z,34.69
2023-03-19T05:23:08.133Z,35.81
2023-03-19T05:26:19.952Z,36.99
2023-03-19T05:29:53.222Z,37.24
2023-03-19T05:33:20.282Z,36.92
2023-03-19T05:36:24.972Z,36.75
2023-03-19T05:39:54.952Z,37.03
2023-03-19T05:42:59.560Z,36.74
2023-03-19T05:46:06.164Z,36.87
2023-03-19T05:49:11.277Z,36.78
2023-03-19T05:52:15.525Z,37.24
2023-03-19T05:55:20.031Z,37.80
2023-03-19T05:58:29.113Z,37.87
2023-03-19T06:01:33.311Z,38.11
2023-03-19T06:04:39.876Z,38.21
2023-03-19T06:07:44.510Z,39.06
2023-03-19T06:10:59.936Z,37.80
2023-03-19T06:14:04.949Z,39.34
2023-03-19T06:17:14.629Z,39.33
2023-03-19T06:20:18.921Z,39.74
2023-03-19T06:23:23.733Z,38.26
2023-03-19T06:26:28.358Z,39.17
2023-03-19T06:29:34.814Z,38.69
2023-03-19T06:32:51.343Z,38.36
2023-03-19T06:35:55.470Z,39.22
2023-03-19T06:38:58.865Z,38.44
2023-03-19T06:42:02.893Z,39.03
2023-03-19T06:45:08.458Z,39.06
2023-03-19T06:48:12.806Z,39.25
2023-03-19T06:51:16.338Z,39.67
2023-03-19T06:54:20.246Z,40.19
2023-03-19T06:57:23.854Z,40.12
2023-03-19T07:00:27.483Z,40.33
2023-03-19T07:03:31.598Z,39.43
2023-03-19T07:06:35.755Z,39.64
2023-03-19T07:09:39.681Z,39.70
2023-03-19T07:12:43.267Z,39.50
2023-03-19T07:15:48.238Z,39.10
2023-03-19T07:18:52.316Z,39.19
2023-03-19T07:21:56.284Z,38.83
2023-03-19T07:25:00.334Z,38.30
2023-03-19T07:28:04.563Z,38.62
2023-03-19T07:31:08.750Z,39.35
2023-03-19T07:34:12.750Z,38.78
2023-03-19T07:37:16.247Z,39.46
2023-03-19T07:40:19.966Z,39.37
2023-03-19T07:43:24.052Z,39.74
2023-03-19T07:46:28.366Z,39.75
2023-03-19T07:49:32.665Z,39.17
2023-03-19T07:52:37.169Z,39.76
2023-03-19T07:55:41.477Z,39.74
2023-03-19T07:58:45.562Z,39.49
2023-03-19T08:01:49.691Z,39.30
2023-03-19T08:04:54.116Z,39.97
2023-03-19T08:07:58.139Z,40.39
2023-03-19T08:11:02.557Z,39.96
2023-03-19T08:14:07.108Z,40.00
2023-03-19T08:17:11.257Z,40.07
2023-03-19T08:20:19.250Z,40.49
2023-03-19T08:23:24.824Z,41.66
2023-03-19T08:26:29.616Z,40.98
2023-03-19T08:29:33.772Z,41.17
2023-03-19T08:32:38.147Z,41.58
2023-03-19T08:35:42.831Z,41.84
2023-03-19T08:38:47.033Z,43.13
2023-03-19T08:41:51.354Z,43.03
2023-03-19T08:44:55.755Z,45.00
2023-03-19T08:48:00.174Z,44.70
2023-03-19T08:51:04.800Z,44.78
2023-03-19T08:54:12.073Z,45.11
2023-03-19T08:57:16.502Z,44.18
2023-03-19T09:00:21.569Z,45.17
2023-03-19T09:03:25.763Z,45.39
2023-03-19T09:06:31.474Z,46.37
2023-03-19T09:09:35.609Z,46.25
2023-03-19T09:12:40.078Z,48.73
2023-03-19T09:15:44.486Z,47.84
2023-03-19T09:18:49.275Z,47.80
2023-03-19T09:21:53.244Z,48.90
2023-03-19T09:24:57.244Z,49.17
2023-03-19T09:28:01.244Z,48.55
2023-03-19T09:31:08.024Z,48.62
2023-03-19T09:34:12.302Z,49.75
2023-03-19T09:37:16.434Z,52.27
2023-03-19T09:40:36.139Z,50.68
2023-03-19T09:43:59.490Z,51.63
2023-03-19T09:47:09.481Z,51.78
2023-03-19T09:50:17.163Z,50.99
2023-03-19T09:53:29.720Z,50.76
2023-03-19T09:56:34.134Z,51.38
2023-03-19T09:59:38.454Z,50.69
2023-03-19T10:02:44.116Z,50.75
2023-03-19T10:05:55.100Z,50.33
2023-03-19T10:09:01.945Z,51.46
2023-03-19T10:12:18.491Z,52.17
2023-03-19T10:15:22.948Z,52.71
2023-03-19T10:18:28.999Z,53.13
2023-03-19T10:21:33.190Z,53.21
2023-03-19T10:24:39.227Z,52.95
2023-03-19T10:27:45.214Z,53.81
2023-03-19T10:30:56.425Z,53.33
2023-03-19T10:34:17.231Z,54.59
2023-03-19T10:37:23.061Z,54.06
2023-03-19T10:40:47.326Z,52.81
2023-03-19T10:43:56.932Z,53.85
2023-03-19T10:47:11.416Z,53.25
2023-03-19T10:50:18.296Z,54.17
2023-03-19T10:53:34.558Z,54.06
2023-03-19T10:56:47.051Z,53.30
2023-03-19T10:59:51.120Z,54.64
2023-03-19T11:02:57.205Z,53.59
2023-03-19T11:06:07.097Z,53.74
2023-03-19T11:09:11.241Z,53.04
2023-03-19T11:12:17.124Z,53.64
2023-03-19T11:15:23.597Z,54.87
2023-03-19T11:18:39.241Z,54.33
2023-03-19T11:21:43.151Z,53.73
2023-03-19T11:24:51.752Z,54.59
2023-03-19T11:28:04.756Z,56.71
2023-03-19T11:31:20.109Z,58.79
2023-03-19T11:34:30.063Z,58.87
2023-03-19T11:37:52.931Z,58.35
2023-03-19T11:41:06.992Z,57.39
2023-03-19T11:44:16.870Z,60.22
2023-03-19T11:47:35.495Z,60.50
2023-03-19T11:50:52.160Z,61.79
2023-03-19T11:54:16.255Z,61.18
2023-03-19T11:57:40.557Z,61.32
2023-03-19T12:00:48.812Z,60.94
2023-03-19T12:03:55.903Z,62.14
2023-03-19T12:07:17.412Z,61.73
2023-03-19T12:10:27.723Z,61.88
2023-03-19T12:13:50.368Z,63.37
2023-03-19T12:16:59.405Z,62.96
2023-03-19T12:20:13.079Z,64.80
2023-03-19T12:23:23.137Z,65.87
2023-03-19T12:26:43.381Z,66.36
2023-03-19T12:29:47.610Z,65.86
2023-03-19T12:33:10.294Z,66.22
2023-03-19T12:36:19.155Z,66.28
2023-03-19T12:39:25.520Z,68.33
2023-03-19T12:42:31.337Z,67.58
2023-03-19T12:45:37.974Z,65.88
2023-03-19T12:48:49.644Z,65.79
2023-03-19T12:51:59.110Z,66.84
2023-03-19T12:55:03.968Z,66.93
2023-03-19T12:58:15.336Z,67.72
2023-03-19T13:01:25.955Z,65.67
2023-03-19T13:04:38.746Z,66.80
2023-03-19T13:07:46.789Z,68.15
2023-03-19T13:10:50.849Z,65.23
2023-03-19T13:14:17.781Z,64.67
2023-03-19T13:17:25.923Z,65.48
2023-03-19T13:20:44.527Z,67.78
2023-03-19T13:23:53.467Z,68.40
2023-03-19T13:26:59.293Z,68.42
2023-03-19T13:30:09.538Z,68.45
2023-03-19T13:33:23.709Z,68.36
2023-03-19T13:36:29.308Z,68.09
2023-03-19T13:39:34.395Z,66.24
2023-03-19T13:42:44.579Z,66.70
2023-03-19T13:45:53.391Z,66.19
2023-03-19T13:49:04.284Z,67.51
2023-03-19T13:52:11.342Z,66.95
2023-03-19T13:55:27.923Z,66.99
2023-03-19T13:58:52.759Z,69.14
2023-03-19T14:01:57.336Z,67.37
2023-03-19T14:05:03.046Z,69.16
2023-03-19T14:08:18.038Z,67.70
2023-03-19T14:11:26.094Z,66.71
2023-03-19T14:14:30.088Z,68.49
2023-03-19T14:17:38.811Z,66.34
2023-03-19T14:20:52.769Z,67.72
2023-03-19T14:23:58.281Z,67.00
2023-03-19T14:27:13.762Z,66.98
2023-03-19T14:30:24.172Z,66.46
2023-03-19T14:33:32.485Z,66.85
2023-03-19T14:36:43.954Z,66.52
2023-03-19T14:39:51.974Z,68.27
2023-03-19T14:43:10.999Z,68.31
2023-03-19T14:46:33.078Z,69.31
2023-03-19T14:49:39.878Z,69.84
2023-03-19T14:52:52.876Z,70.27
2023-03-19T14:55:57.227Z,68.57
2023-03-19T14:59:06.868Z,69.05
2023-03-19T15:02:34.308Z,68.33
2023-03-19T15:05:38.525Z,68.66
2023-03-19T15:08:43.272Z,67.83
2023-03-19T15:11:56.704Z,67.98
2023-03-19T15:15:12.312Z,67.63
2023-03-19T15:18:17.133Z,67.14
2023-03-19T15:21:22.439Z,67.45
2023-03-19T15:24:27.881Z,67.57
2023-03-19T15:27:31.686Z,67.32
2023-03-19T15:30:50.615Z,67.62
2023-03-19T15:33:58.670Z,70.11
2023-03-19T15:37:05.474Z,70.74
2023-03-19T15:40:13.015Z,70.46
2023-03-19T15:43:17.489Z,71.24
2023-03-19T15:46:24.495Z,71.62
2023-03-19T15:49:36.305Z,71.31
2023-03-19T15:52:42.090Z,71.02
2023-03-19T15:55:46.025Z,71.12
2023-03-19T15:58:53.143Z,71.02
2023-03-19T16:02:04.579Z,69.47
2023-03-19T16:05:21.956Z,70.76
2023-03-19T16:08:27.245Z,69.00
2023-03-19T16:11:34.872Z,69.75
2023-03-19T16:14:43.083Z,70.69
2023-03-19T16:17:47.170Z,71.28
2023-03-19T16:20:54.205Z,72.77
2023-03-19T16:24:03.149Z,72.70
2023-03-19T16:27:18.282Z,72.92
2023-03-19T16:30:26.614Z,73.18
2023-03-19T16:33:31.424Z,71.99
2023-03-19T16:36:35.111Z,72.45
2023-03-19T16:39:53.345Z,73.30
2023-03-19T16:43:07.370Z,72.43
2023-03-19T16:46:13.334Z,72.69
2023-03-19T16:49:17.576Z,73.83
2023-03-19T16:52:23.402Z,72.36
2023-03-19T16:55:28.372Z,72.82
2023-03-19T16:58:32.500Z,72.32
2023-03-19T17:01:36.879Z,72.00
2023-03-19T17:04:41.581Z,72.14
2023-03-19T17:07:45.661Z,72.67
2023-03-19T17:10:51.548Z,72.35
2023-03-19T17:13:57.675Z,74.04
2023-03-19T17:17:01.955Z,72.64
2023-03-19T17:20:06.992Z,72.91
2023-03-19T17:23:12.215Z,72.42
2023-03-19T17:26:21.336Z,72.93
2023-03-19T17:29:26.332Z,73.45
2023-03-19T17:32:30.072Z,72.92
2023-03-19T17:35:35.042Z,72.67
2023-03-19T17:38:38.783Z,72.99
2023-03-19T17:41:42.593Z,73.17
2023-03-19T17:44:46.771Z,73.56
2023-03-19T17:47:53.888Z,72.71
2023-03-19T17:51:01.286Z,71.32
2023-03-19T17:54:08.163Z,71.76
2023-03-19T17:57:14.299Z,71.70
2023-03-19T18:00:19.455Z,72.34
2023-03-19T18:03:25.131Z,73.21
2023-03-19T18:06:45.397Z,73.85
2023-03-19T18:09:49.289Z,74.63
2023-03-19T18:12:56.847Z,73.91
2023-03-19T18:16:01.103Z,72.35
2023-03-19T18:19:08.069Z,71.94
2023-03-19T18:22:16.570Z,70.71
2023-03-19T18:25:27.446Z,70.05
2023-03-19T18:28:31.423Z,68.97
2023-03-19T18:31:34.928Z,70.33
2023-03-19T18:34:39.107Z,71.43
2023-03-19T18:37:44.213Z,72.01
2023-03-19T18:40:49.937Z,71.73
2023-03-19T18:43:53.985Z,71.77
2023-03-19T18:46:58.057Z,70.88
2023-03-19T18:50:02.676Z,70.59
2023-03-19T18:53:07.161Z,69.87
2023-03-19T18:56:19.942Z,70.03
2023-03-19T18:59:34.387Z,67.84
2023-03-19T19:02:38.681Z,67.49
2023-03-19T19:05:43.406Z,68.60
2023-03-19T19:08:47.459Z,69.39
2023-03-19T19:11:52.772Z,68.51
2023-03-19T19:14:57.971Z,68.65
2023-03-19T19:18:02.274Z,68.39
2023-03-19T19:21:06.521Z,68.84
2023-03-19T19:24:11.101Z,71.71
2023-03-19T19:27:22.873Z,70.22
2023-03-19T19:30:27.133Z,71.96
2023-03-19T19:33:35.582Z,71.57
2023-03-19T19:36:39.702Z,71.63
2023-03-19T19:39:43.786Z,71.91
2023-03-19T19:42:49.317Z,71.43
2023-03-19T19:45:54.465Z,71.47
2023-03-19T19:48:59.483Z,72.78
2023-03-19T19:52:03.589Z,71.92
2023-03-19T19:55:11.822Z,71.93
2023-03-19T19:58:18.849Z,73.35
2023-03-19T20:01:24.169Z,73.16
2023-03-19T20:04:30.505Z,72.85
2023-03-19T20:07:34.941Z,73.50
2023-03-19T20:10:39.232Z,72.65
2023-03-19T20:13:50.682Z,72.61
2023-03-19T20:16:54.689Z,74.54
2023-03-19T20:19:58.440Z,74.60
2023-03-19T20:23:03.056Z,73.88
2023-03-19T20:26:07.031Z,72.74
2023-03-19T20:29:16.437Z,74.20
2023-03-19T20:32:20.850Z,74.10
2023-03-19T20:35:26.186Z,73.50
2023-03-19T20:38:30.303Z,73.69
2023-03-19T20:41:35.025Z,72.96
2023-03-19T20:44:39.249Z,73.53
2023-03-19T20:47:43.078Z,73.38
2023-03-19T20:50:47.504Z,73.99
2023-03-19T20:53:52.391Z,73.88
2023-03-19T20:56:56.105Z,73.73
2023-03-19T21:00:03.266Z,74.11
2023-03-19T21:03:07.365Z,74.81
2023-03-19T21:06:17.239Z,75.93
2023-03-19T21:09:22.156Z,74.81
2023-03-19T21:12:33.304Z,74.96
2023-03-19T21:15:37.788Z,75.01
2023-03-19T21:18:42.117Z,75.32
2023-03-19T21:21:46.892Z,75.76
2023-03-19T21:24:52.501Z,75.87
2023-03-19T21:27:59.342Z,76.86
2023-03-19T21:31:03.791Z,76.40
2023-03-19T21:34:07.782Z,75.77
2023-03-19T21:37:12.276Z,75.83
2023-03-19T21:40:20.914Z,74.70
2023-03-19T21:43:27.040Z,75.13
2023-03-19T21:46:32.283Z,75.24
2023-03-19T21:49:36.494Z,74.72
2023-03-19T21:52:56.560Z,74.38
2023-03-19T21:56:03.728Z,73.74
2023-03-19T21:59:15.865Z,74.48
2023-03-19T22:02:23.270Z,74.72
2023-03-19T22:05:29.631Z,74.53
2023-03-19T22:08:33.441Z,72.23
2023-03-19T22:11:38.983Z,70.32
2023-03-19T22:14:43.055Z,72.58
2023-03-19T22:17:47.122Z,68.08
2023-03-19T22:20:54.799Z,66.50
2023-03-19T22:23:59.047Z,67.89
2023-03-19T22:27:03.154Z,56.64
2023-03-19T22:30:07.701Z,55.83
2023-03-19T22:33:17.056Z,55.26
2023-03-19T22:36:21.415Z,55.21
2023-03-19T22:39:25.161Z,54.60
2023-03-19T22:42:29.008Z,58.60
2023-03-19T22:45:34.132Z,52.48
2023-03-19T22:48:39.526Z,53.08
2023-03-19T22:51:44.469Z,54.99
2023-03-19T22:54:48.895Z,59.84
2023-03-19T22:57:52.867Z,53.19
2023-03-19T23:00:57.425Z,50.78
2023-03-19T23:04:15.042Z,48.90
2023-03-19T23:07:19.084Z,45.86
2023-03-19T23:10:23.470Z,42.24
2023-03-19T23:13:27.881Z,41.38
2023-03-19T23:16:32.039Z,42.74
2023-03-19T23:19:37.614Z,39.92
2023-03-19T23:22:42.361Z,40.90
2023-03-19T23:25:47.808Z,41.21
2023-03-19T23:28:52.360Z,42.59
2023-03-19T23:31:59.321Z,41.70
2023-03-19T23:35:03.543Z,42.01
2023-03-19T23:38:07.854Z,41.68
2023-03-19T23:41:19.166Z,43.57
2023-03-19T23:44:23.560Z,42.64
2023-03-19T23:47:27.894Z,41.00
2023-03-19T23:50:32.861Z,41.51
2023-03-19T23:53:36.830Z,41.10
2023-03-19T23:56:41.369Z,41.86
2023-03-19T23:59:46.714Z,40.41
